Hansa Visby — ELWR5 — position and weather

sailwx.info

Track history (hours):
 
Tides and Currents Weather Stations Pressure Air Temp Water Temp Dewpoint Dewpoint Depression Visibility Wind Speed Wind Dir Waves Ship Positions

Hansa Visby

Last reported at 2018-Jan-26 22:59 UTC. Time now 2018-Feb-17 20:00 UTC.
Position N 09°14' W 079°55'.
Warning: this ship's position is 21 days out of date.

Length 156.9 m; beam 23 m; draft 9.5 m.

Type: Cargo ship. MMSI: 636016167.

Date/timePositionNaut miles runAvg speedWind from/ knotsBaromVisibWave heightAir tempDewpointWater temp
2018-Jan-26 22:59N 09°14' W 079°55'2 4.2
2018-Jan-26 22:30N 09°16' W 079°55'0 0.5
2018-Jan-26 21:42N 09°17' W 079°55'0 0.7
2018-Jan-26 21:24N 09°17' W 079°55'1 3.6
2018-Jan-26 20:59N 09°18' W 079°55'3 7.1
2018-Jan-26 20:30N 09°22' W 079°55'1 2.0
2018-Jan-26 19:59N 09°22' W 079°56'0 0.0
2018-Jan-26 19:29N 09°22' W 079°56'0 0.0
2018-Jan-26 18:59N 09°22' W 079°56'0 0.0
2018-Jan-26 18:29N 09°22' W 079°56'0 0.0
2018-Jan-26 17:59N 09°22' W 079°56'0 0.0
2018-Jan-26 17:29N 09°22' W 079°56'0 0.0
2018-Jan-26 16:59N 09°22' W 079°56'0 0.0
2018-Jan-26 16:29N 09°22' W 079°56'0 0.0
2018-Jan-26 15:56N 09°22' W 079°56'0 0.0
2018-Jan-26 15:29N 09°22' W 079°56'0 0.0
2018-Jan-26 14:59N 09°22' W 079°56'0 0.0
2018-Jan-26 14:26N 09°22' W 079°56'0 0.0
2018-Jan-26 13:59N 09°22' W 079°56'0 0.0
2018-Jan-26 13:29N 09°22' W 079°56'0 0.0
2018-Jan-26 12:56N 09°22' W 079°56'0 0.1
2018-Jan-26 12:29N 09°22' W 079°56'0 0.1
2018-Jan-26 11:59N 09°22' W 079°56'0 0.0
2018-Jan-26 11:26N 09°22' W 079°56'0 0.2
2018-Jan-26 10:59N 09°22' W 079°56'2 3.5
2018-Jan-26 10:30N 09°24' W 079°55'1 1.9
2018-Jan-26 10:00N 09°24' W 079°56'0 0.1
2018-Jan-26 09:30N 09°24' W 079°56'0 0.0
2018-Jan-26 09:00N 09°24' W 079°56'0 0.0
2018-Jan-26 08:30N 09°24' W 079°56'0 0.0
2018-Jan-26 08:00N 09°24' W 079°56'0 0.0
2018-Jan-26 07:27N 09°24' W 079°56'0 0.0
2018-Jan-26 07:00N 09°24' W 079°56'0 0.0
2018-Jan-26 06:30N 09°24' W 079°56'0 0.0
2018-Jan-26 06:00N 09°24' W 079°56'0 0.0
2018-Jan-26 05:30N 09°24' W 079°56'0 0.0
2018-Jan-26 05:00N 09°24' W 079°56'0 0.0
2018-Jan-26 04:30N 09°24' W 079°56'0 0.0
2018-Jan-26 04:00N 09°24' W 079°56'0 0.0
2018-Jan-26 03:30N 09°24' W 079°56'0 0.0
2018-Jan-26 03:00N 09°24' W 079°56'0 0.0
2018-Jan-26 02:27N 09°24' W 079°56'0 0.0
2018-Jan-26 02:00N 09°24' W 079°56'0 0.0
2018-Jan-26 01:30N 09°24' W 079°56'0 0.0
2018-Jan-26 01:00N 09°24' W 079°56'0 0.0
2018-Jan-26 00:30N 09°24' W 079°56'0 0.0
2018-Jan-25 23:57N 09°24' W 079°56'0 0.0
2018-Jan-25 23:27N 09°24' W 079°56'0 0.0
2018-Jan-25 22:57N 09°24' W 079°56'0 0.0
2018-Jan-25 22:30N 09°24' W 079°56'0 0.0
2018-Jan-25 22:00N 09°24' W 079°56'0 0.0
2018-Jan-25 21:30N 09°24' W 079°56'0 0.0
2018-Jan-25 21:00N 09°24' W 079°56'0 0.0
2018-Jan-25 20:30N 09°24' W 079°56'0 0.0
2018-Jan-25 20:00N 09°24' W 079°56'0 0.0
2018-Jan-25 19:30N 09°24' W 079°56'0 0.0
2018-Jan-25 19:00N 09°24' W 079°56'0 0.0
2018-Jan-25 18:30N 09°24' W 079°56'0 0.0
2018-Jan-25 17:57N 09°24' W 079°56'0 0.0
2018-Jan-25 17:30N 09°24' W 079°56'0 0.0
2018-Jan-25 16:57N 09°24' W 079°56'0 0.0
2018-Jan-25 16:30N 09°24' W 079°56'0 0.0
2018-Jan-25 16:00N 09°24' W 079°56'0 0.0
2018-Jan-25 15:30N 09°24' W 079°56'0 0.0
2018-Jan-25 14:57N 09°24' W 079°56'0 0.0
2018-Jan-25 14:27N 09°24' W 079°56'0 0.0
2018-Jan-25 14:00N 09°24' W 079°56'0 0.0
2018-Jan-25 13:30N 09°24' W 079°56'0 0.0
2018-Jan-25 13:00N 09°24' W 079°56'0 0.0
2018-Jan-25 12:30N 09°24' W 079°56'0 0.0
2018-Jan-25 12:00N 09°24' W 079°56'0 0.0
2018-Jan-25 11:30N 09°24' W 079°56'0 0.0
2018-Jan-25 11:00N 09°24' W 079°56'0 0.1
2018-Jan-25 10:30N 09°24' W 079°56'0 0.2
2018-Jan-25 09:57N 09°24' W 079°56'1 2.0
2018-Jan-25 09:30N 09°25' W 079°56'4 7.2
2018-Jan-25 09:00N 09°28' W 079°55'31915.8
2018-Jan-24 12:48N 11°24' W 074°52'  
Track history (hours):
 
Tides and Currents Weather Stations Pressure Air Temp Water Temp Dewpoint Dewpoint Depression Visibility Wind Speed Wind Dir Waves Ship Positions

Hansa Visby

Last reported at 2018-Jan-26 22:59 UTC. Time now 2018-Feb-17 20:00 UTC.
Position N 09°14' W 079°55'.
Warning: this ship's position is 21 days out of date.

Length 156.9 m; beam 23 m; draft 9.5 m.

Type: Cargo ship. MMSI: 636016167.

Date/timePositionNaut miles runAvg speedWind from/ knotsBaromVisibWave heightAir tempDewpointWater temp
2018-Jan-26 22:59N 09°14' W 079°55'2 4.2
2018-Jan-26 22:30N 09°16' W 079°55'0 0.5
2018-Jan-26 21:42N 09°17' W 079°55'0 0.7
2018-Jan-26 21:24N 09°17' W 079°55'1 3.6
2018-Jan-26 20:59N 09°18' W 079°55'3 7.1
2018-Jan-26 20:30N 09°22' W 079°55'1 2.0
2018-Jan-26 19:59N 09°22' W 079°56'0 0.0
2018-Jan-26 19:29N 09°22' W 079°56'0 0.0
2018-Jan-26 18:59N 09°22' W 079°56'0 0.0
2018-Jan-26 18:29N 09°22' W 079°56'0 0.0
2018-Jan-26 17:59N 09°22' W 079°56'0 0.0
2018-Jan-26 17:29N 09°22' W 079°56'0 0.0
2018-Jan-26 16:59N 09°22' W 079°56'0 0.0
2018-Jan-26 16:29N 09°22' W 079°56'0 0.0
2018-Jan-26 15:56N 09°22' W 079°56'0 0.0
2018-Jan-26 15:29N 09°22' W 079°56'0 0.0
2018-Jan-26 14:59N 09°22' W 079°56'0 0.0
2018-Jan-26 14:26N 09°22' W 079°56'0 0.0
2018-Jan-26 13:59N 09°22' W 079°56'0 0.0
2018-Jan-26 13:29N 09°22' W 079°56'0 0.0
2018-Jan-26 12:56N 09°22' W 079°56'0 0.1
2018-Jan-26 12:29N 09°22' W 079°56'0 0.1
2018-Jan-26 11:59N 09°22' W 079°56'0 0.0
2018-Jan-26 11:26N 09°22' W 079°56'0 0.2
2018-Jan-26 10:59N 09°22' W 079°56'2 3.5
2018-Jan-26 10:30N 09°24' W 079°55'1 1.9
2018-Jan-26 10:00N 09°24' W 079°56'0 0.1
2018-Jan-26 09:30N 09°24' W 079°56'0 0.0
2018-Jan-26 09:00N 09°24' W 079°56'0 0.0
2018-Jan-26 08:30N 09°24' W 079°56'0 0.0
2018-Jan-26 08:00N 09°24' W 079°56'0 0.0
2018-Jan-26 07:27N 09°24' W 079°56'0 0.0
2018-Jan-26 07:00N 09°24' W 079°56'0 0.0
2018-Jan-26 06:30N 09°24' W 079°56'0 0.0
2018-Jan-26 06:00N 09°24' W 079°56'0 0.0
2018-Jan-26 05:30N 09°24' W 079°56'0 0.0
2018-Jan-26 05:00N 09°24' W 079°56'0 0.0
2018-Jan-26 04:30N 09°24' W 079°56'0 0.0
2018-Jan-26 04:00N 09°24' W 079°56'0 0.0
2018-Jan-26 03:30N 09°24' W 079°56'0 0.0
2018-Jan-26 03:00N 09°24' W 079°56'0 0.0
2018-Jan-26 02:27N 09°24' W 079°56'0 0.0
2018-Jan-26 02:00N 09°24' W 079°56'0 0.0
2018-Jan-26 01:30N 09°24' W 079°56'0 0.0
2018-Jan-26 01:00N 09°24' W 079°56'0 0.0
2018-Jan-26 00:30N 09°24' W 079°56'0 0.0
2018-Jan-25 23:57N 09°24' W 079°56'0 0.0
2018-Jan-25 23:27N 09°24' W 079°56'0 0.0
2018-Jan-25 22:57N 09°24' W 079°56'0 0.0
2018-Jan-25 22:30N 09°24' W 079°56'0 0.0
2018-Jan-25 22:00N 09°24' W 079°56'0 0.0
2018-Jan-25 21:30N 09°24' W 079°56'0 0.0
2018-Jan-25 21:00N 09°24' W 079°56'0 0.0
2018-Jan-25 20:30N 09°24' W 079°56'0 0.0
2018-Jan-25 20:00N 09°24' W 079°56'0 0.0
2018-Jan-25 19:30N 09°24' W 079°56'0 0.0
2018-Jan-25 19:00N 09°24' W 079°56'0 0.0
2018-Jan-25 18:30N 09°24' W 079°56'0 0.0
2018-Jan-25 17:57N 09°24' W 079°56'0 0.0
2018-Jan-25 17:30N 09°24' W 079°56'0 0.0
2018-Jan-25 16:57N 09°24' W 079°56'0 0.0
2018-Jan-25 16:30N 09°24' W 079°56'0 0.0
2018-Jan-25 16:00N 09°24' W 079°56'0 0.0
2018-Jan-25 15:30N 09°24' W 079°56'0 0.0
2018-Jan-25 14:57N 09°24' W 079°56'0 0.0
2018-Jan-25 14:27N 09°24' W 079°56'0 0.0
2018-Jan-25 14:00N 09°24' W 079°56'0 0.0
2018-Jan-25 13:30N 09°24' W 079°56'0 0.0
2018-Jan-25 13:00N 09°24' W 079°56'0 0.0
2018-Jan-25 12:30N 09°24' W 079°56'0 0.0
2018-Jan-25 12:00N 09°24' W 079°56'0 0.0
2018-Jan-25 11:30N 09°24' W 079°56'0 0.0
2018-Jan-25 11:00N 09°24' W 079°56'0 0.1
2018-Jan-25 10:30N 09°24' W 079°56'0 0.2
2018-Jan-25 09:57N 09°24' W 079°56'1 2.0
2018-Jan-25 09:30N 09°25' W 079°56'4 7.2
2018-Jan-25 09:00N 09°28' W 079°55'31915.8
2018-Jan-24 12:48N 11°24' W 074°52'  

Dump ship's entire track history